Time;durP1;ratioP1;P1;durP2;ratioP2;P2;SDS_P1;SDS_P2;PMS_P1;PMS_P2;Temp;Humidity;BMP_temperature;BMP_pressure;BME280_temperature;BME280_humidity;BME280_pressure;Samples;Min_cycle;Max_cycle;Signal;HPM_P1;HPM_P2
2023/02/22 00:01:35;;;;;;;53.40;21.83;;;7.30;99.90;;;;;;5055617;28;20480;-79
2023/02/22 00:04:02;;;;;;;52.77;23.60;;;7.20;99.90;;;;;;5056443;28;20951;-79
2023/02/22 00:06:31;;;;;;;56.63;24.30;;;7.10;99.90;;;;;;5054213;28;21019;-80
2023/02/22 00:08:58;;;;;;;54.00;22.00;;;7.00;99.90;;;;;;5051755;28;20451;-80
2023/02/22 00:11:25;;;;;;;51.23;23.13;;;7.00;99.90;;;;;;5051334;28;20539;-79
2023/02/22 00:13:55;;;;;;;56.60;24.37;;;7.00;99.90;;;;;;5054806;28;20569;-78
2023/02/22 00:16:23;;;;;;;54.97;23.27;;;7.10;99.90;;;;;;5054344;28;20463;-77
2023/02/22 00:18:52;;;;;;;79.87;30.17;;;7.10;99.90;;;;;;5055267;28;20525;-78
2023/02/22 00:21:19;;;;;;;54.17;24.97;;;7.20;99.90;;;;;;5054568;28;20492;-79
2023/02/22 00:23:48;;;;;;;67.80;27.47;;;7.20;99.90;;;;;;5056275;28;20482;-78
2023/02/22 00:26:18;;;;;;;65.80;26.07;;;7.30;99.90;;;;;;5055188;28;20449;-80
2023/02/22 00:28:46;;;;;;;83.70;29.03;;;7.30;99.90;;;;;;5055581;28;20476;-79
2023/02/22 00:31:13;;;;;;;71.80;28.13;;;7.40;99.90;;;;;;5055898;28;20456;-79
2023/02/22 00:33:41;;;;;;;80.00;31.57;;;7.40;99.90;;;;;;5055040;28;20485;-80
2023/02/22 00:36:09;;;;;;;62.50;24.30;;;7.50;99.90;;;;;;5055539;28;21005;-80
2023/02/22 00:38:36;;;;;;;82.80;29.30;;;7.60;99.90;;;;;;5055837;28;20458;-80
2023/02/22 00:41:05;;;;;;;64.70;24.90;;;7.60;99.90;;;;;;5055366;28;21020;-79
2023/02/22 00:43:33;;;;;;;78.70;31.00;;;7.70;99.90;;;;;;5055652;28;20552;-78
2023/02/22 00:46:00;;;;;;;74.13;28.07;;;7.80;99.90;;;;;;5055177;28;20552;-79
2023/02/22 00:48:27;;;;;;;69.27;28.07;;;7.80;99.90;;;;;;5055477;28;20451;-81
2023/02/22 00:50:54;;;;;;;67.67;26.83;;;7.90;99.90;;;;;;5054713;28;20988;-79
2023/02/22 00:53:22;;;;;;;68.10;27.83;;;8.00;99.90;;;;;;5055752;28;20468;-78
2023/02/22 00:55:49;;;;;;;81.80;29.10;;;8.00;99.90;;;;;;5057689;28;20455;-79
2023/02/22 00:58:18;;;;;;;70.03;27.00;;;8.00;99.90;;;;;;5062593;28;20511;-79
2023/02/22 01:00:46;;;;;;;68.33;26.70;;;8.00;99.90;;;;;;5062673;28;20503;-79
2023/02/22 01:03:16;;;;;;;70.83;28.23;;;8.00;99.90;;;;;;5058604;28;20477;-79
2023/02/22 01:05:43;;;;;;;67.00;29.43;;;8.00;99.90;;;;;;5050452;28;20449;-80
2023/02/22 01:08:12;;;;;;;80.27;30.00;;;8.00;99.90;;;;;;5053703;28;20980;-81
2023/02/22 01:10:39;;;;;;;78.00;27.40;;;8.10;99.90;;;;;;5056057;28;20444;-81
2023/02/22 01:13:10;;;;;;;79.43;30.83;;;8.00;99.90;;;;;;5053862;28;20483;-80
2023/02/22 01:15:41;;;;;;;85.43;29.77;;;7.90;99.90;;;;;;5056019;28;20466;-81
2023/02/22 01:18:08;;;;;;;73.83;28.30;;;7.90;99.90;;;;;;5056626;28;20527;-79
2023/02/22 01:20:35;;;;;;;73.57;30.00;;;7.90;99.90;;;;;;5055860;28;20491;-80
2023/02/22 01:23:05;;;;;;;93.47;29.97;;;7.90;99.90;;;;;;5055849;28;20475;-79
2023/02/22 01:25:32;;;;;;;78.10;29.20;;;7.90;99.90;;;;;;5054397;28;20456;-77
2023/02/22 01:28:01;;;;;;;62.97;26.80;;;7.90;99.90;;;;;;5056094;28;20994;-80
2023/02/22 01:30:31;;;;;;;61.10;25.83;;;7.70;99.90;;;;;;5056002;28;20888;-80
2023/02/22 01:33:00;;;;;;;83.10;29.43;;;7.90;99.90;;;;;;5055320;28;20863;-78
2023/02/22 01:35:30;;;;;;;78.67;31.67;;;7.90;99.90;;;;;;5056014;28;20456;-81
2023/02/22 01:37:57;;;;;;;60.20;25.30;;;7.80;99.90;;;;;;5056060;28;20981;-81
2023/02/22 01:40:27;;;;;;;72.47;27.00;;;7.90;99.90;;;;;;5055857;28;20478;-79
2023/02/22 01:42:56;;;;;;;57.17;25.97;;;8.00;99.90;;;;;;5055757;28;20482;-80
2023/02/22 01:45:47;;;;;;;63.37;22.80;;;8.00;99.90;;;;;;5056391;28;20463;-81
2023/02/22 01:48:20;;;;;;;49.47;23.10;;;8.00;99.90;;;;;;5057398;28;20458;-80
2023/02/22 01:50:52;;;;;;;60.70;25.20;;;8.00;99.90;;;;;;5055131;28;20460;-80
2023/02/22 01:53:22;;;;;;;62.07;23.60;;;8.00;99.90;;;;;;5055716;28;20842;-80
2023/02/22 01:55:51;;;;;;;53.30;23.90;;;8.00;99.90;;;;;;5055661;28;20448;-82
2023/02/22 01:58:19;;;;;;;50.47;22.33;;;8.00;99.90;;;;;;5055838;28;20456;-80
2023/02/22 02:00:46;;;;;;;51.13;23.40;;;8.10;99.90;;;;;;5055896;28;20483;-79
2023/02/22 02:03:18;;;;;;;57.93;23.33;;;8.10;99.90;;;;;;5055574;28;20991;-79
2023/02/22 02:05:46;;;;;;;118.23;32.43;;;8.00;99.90;;;;;;5057187;28;20535;-79
2023/02/22 02:08:21;;;;;;;58.40;22.70;;;7.90;99.90;;;;;;5060471;28;20459;-78
2023/02/22 02:10:49;;;;;;;49.20;21.63;;;7.80;99.90;;;;;;5059972;28;20452;-80
2023/02/22 02:13:16;;;;;;;48.53;23.33;;;7.90;99.90;;;;;;5059371;28;21008;-78
2023/02/22 02:15:43;;;;;;;49.97;22.77;;;7.90;99.90;;;;;;5059487;28;20452;-79
2023/02/22 02:18:13;;;;;;;51.23;23.30;;;8.00;99.90;;;;;;5060368;28;20451;-78
2023/02/22 02:20:50;;;;;;;83.23;26.53;;;8.10;99.90;;;;;;5059257;28;20490;-79
2023/02/22 02:23:45;;;;;;;42.13;20.33;;;8.00;99.90;;;;;;5059063;28;20515;-79
2023/02/22 02:26:42;;;;;;;63.93;23.87;;;8.00;99.90;;;;;;5048039;28;20557;-78
2023/02/22 02:29:41;;;;;;;91.30;24.73;;;8.00;99.90;;;;;;5057853;28;20479;-80
2023/02/22 02:32:29;;;;;;;49.30;19.50;;;8.00;99.90;;;;;;5038781;28;20460;-78
2023/02/22 02:35:04;;;;;;;50.33;20.70;;;8.00;99.90;;;;;;5052736;28;20456;-78
2023/02/22 02:37:37;;;;;;;39.40;19.53;;;8.10;99.90;;;;;;5058918;28;20472;-78
2023/02/22 02:40:16;;;;;;;47.53;20.83;;;8.00;99.90;;;;;;5057770;28;20626;-79
2023/02/22 02:42:51;;;;;;;41.90;20.73;;;8.10;99.90;;;;;;5058210;28;20486;-78
2023/02/22 02:45:21;;;;;;;43.87;20.53;;;8.10;99.90;;;;;;5041520;28;20454;-80
2023/02/22 02:47:55;;;;;;;44.47;20.37;;;8.10;99.90;;;;;;5038867;28;21054;-79
2023/02/22 02:50:26;;;;;;;43.23;20.80;;;8.10;99.90;;;;;;5054039;28;20951;-80
2023/02/22 02:52:55;;;;;;;40.40;19.00;;;8.10;99.90;;;;;;5059582;28;20469;-79
2023/02/22 02:55:23;;;;;;;77.77;26.23;;;8.10;99.90;;;;;;5060033;28;21157;-79
2023/02/22 02:57:50;;;;;;;43.50;20.87;;;8.10;99.90;;;;;;5058844;28;20458;-80
2023/02/22 03:00:22;;;;;;;51.13;21.67;;;8.10;99.90;;;;;;5059239;28;20456;-80
2023/02/22 03:03:05;;;;;;;90.73;27.80;;;8.10;99.90;;;;;;5059404;28;20826;-80
2023/02/22 03:06:06;;;;;;;79.33;25.03;;;8.00;99.90;;;;;;5059343;28;20539;-79
2023/02/22 03:08:41;;;;;;;40.17;20.17;;;7.90;99.90;;;;;;5058551;28;20532;-81
2023/02/22 03:11:14;;;;;;;47.90;21.17;;;7.90;99.90;;;;;;5038832;28;20826;-80
2023/02/22 03:13:50;;;;;;;111.60;26.43;;;7.90;99.90;;;;;;5070160;22;20496;-85
2023/02/22 03:16:21;;;;;;;59.57;21.93;;;7.70;99.90;;;;;;5058152;28;20497;-84
2023/02/22 03:18:56;;;;;;;43.70;20.23;;;7.80;99.90;;;;;;5055114;28;20536;-85
2023/02/22 03:21:32;;;;;;;53.67;22.50;;;7.70;99.90;;;;;;5063087;28;20491;-84
2023/02/22 03:24:04;;;;;;;47.90;21.13;;;7.70;99.90;;;;;;5053146;28;20504;-84
2023/02/22 03:26:36;;;;;;;53.50;20.70;;;7.70;99.90;;;;;;5042905;28;20449;-83
2023/02/22 03:29:06;;;;;;;32.67;18.07;;;7.70;99.90;;;;;;5050109;28;20452;-83
2023/02/22 03:31:37;;;;;;;44.40;18.53;;;7.70;99.90;;;;;;5051443;28;20475;-83
2023/02/22 03:34:11;;;;;;;37.00;18.90;;;7.60;99.90;;;;;;5060249;28;20525;-85
2023/02/22 03:36:44;;;;;;;69.40;17.97;;;7.60;99.90;;;;;;5063626;28;20514;-86
2023/02/22 03:39:15;;;;;;;79.33;23.03;;;7.60;99.90;;;;;;5041171;28;20465;-84
2023/02/22 03:41:47;;;;;;;40.87;16.73;;;7.50;99.90;;;;;;5025778;28;20696;-85
2023/02/22 03:44:17;;;;;;;34.13;17.90;;;7.50;99.90;;;;;;5043283;28;20484;-85
2023/02/22 03:46:47;;;;;;;31.50;15.63;;;7.50;99.90;;;;;;5043906;28;20546;-84
2023/02/22 03:49:20;;;;;;;25.63;14.53;;;7.40;99.90;;;;;;5042746;28;20530;-85
2023/02/22 03:51:47;;;;;;;70.63;19.37;;;7.30;99.90;;;;;;5042522;28;20452;-84
2023/02/22 03:54:15;;;;;;;30.90;15.30;;;7.20;99.90;;;;;;5043911;28;20547;-85
2023/02/22 03:56:49;;;;;;;26.93;13.00;;;7.20;99.90;;;;;;5041528;28;20468;-84
2023/02/22 03:59:16;;;;;;;30.20;14.37;;;7.10;99.90;;;;;;5023158;28;20446;-83
2023/02/22 04:01:43;;;;;;;30.10;14.67;;;7.00;99.90;;;;;;5025755;28;20521;-84
2023/02/22 04:04:10;;;;;;;26.33;12.10;;;6.90;99.90;;;;;;5026693;28;20500;-83
2023/02/22 04:06:38;;;;;;;24.70;14.03;;;6.90;99.90;;;;;;5032091;28;20453;-83
2023/02/22 04:09:07;;;;;;;25.70;12.90;;;6.90;99.90;;;;;;5048594;28;20517;-83
2023/02/22 04:11:34;;;;;;;35.23;14.27;;;6.90;99.90;;;;;;5029970;28;20525;-83
2023/02/22 04:14:01;;;;;;;23.03;11.57;;;6.90;99.90;;;;;;5042810;28;20544;-84
2023/02/22 04:16:28;;;;;;;27.63;14.03;;;7.00;99.90;;;;;;5043258;28;20466;-85
2023/02/22 04:18:54;;;;;;;37.03;14.20;;;7.00;99.90;;;;;;5024534;28;20457;-83
2023/02/22 04:21:21;;;;;;;38.27;13.20;;;6.90;99.90;;;;;;5042375;28;20570;-82
2023/02/22 04:23:50;;;;;;;21.00;12.77;;;6.90;99.90;;;;;;5042740;28;20491;-83
2023/02/22 04:26:17;;;;;;;22.37;11.80;;;6.90;99.90;;;;;;5038817;28;20449;-83
2023/02/22 04:28:44;;;;;;;20.07;11.20;;;6.90;99.90;;;;;;5027842;28;20480;-83
2023/02/22 04:31:11;;;;;;;40.70;15.80;;;7.00;99.90;;;;;;5043504;28;20528;-83
2023/02/22 04:33:38;;;;;;;19.90;12.57;;;7.00;99.90;;;;;;5049611;28;20480;-83
2023/02/22 04:36:06;;;;;;;21.23;12.17;;;7.00;99.90;;;;;;5048969;28;20451;-83
2023/02/22 04:38:33;;;;;;;21.53;10.50;;;7.00;99.90;;;;;;5038771;28;20868;-83
2023/02/22 04:41:02;;;;;;;20.00;12.10;;;7.00;99.90;;;;;;5018180;28;20488;-82
2023/02/22 04:43:28;;;;;;;22.47;11.63;;;7.10;99.90;;;;;;5018467;28;20651;-82
2023/02/22 04:45:55;;;;;;;20.53;12.07;;;7.10;99.90;;;;;;5020450;28;20485;-81
2023/02/22 04:48:22;;;;;;;18.77;10.93;;;7.10;99.90;;;;;;5019428;28;20456;-82
2023/02/22 04:50:49;;;;;;;21.73;12.47;;;7.10;99.90;;;;;;5020399;28;20466;-81
2023/02/22 04:53:16;;;;;;;21.60;12.47;;;7.10;99.90;;;;;;5037237;28;20473;-82
2023/02/22 04:55:43;;;;;;;21.97;12.07;;;7.10;99.90;;;;;;5036958;28;20455;-84
2023/02/22 04:58:11;;;;;;;21.13;11.93;;;7.10;99.90;;;;;;5043103;28;20550;-81
2023/02/22 05:00:38;;;;;;;21.40;11.10;;;7.10;99.90;;;;;;5032604;28;20460;-82
2023/02/22 05:03:05;;;;;;;17.53;11.10;;;7.10;99.90;;;;;;5050910;28;21029;-81
2023/02/22 05:05:32;;;;;;;23.73;12.37;;;7.20;99.90;;;;;;5054131;28;20469;-82
2023/02/22 05:07:59;;;;;;;20.90;12.50;;;7.10;99.90;;;;;;5056160;28;20455;-82
2023/02/22 05:10:25;;;;;;;22.93;14.00;;;7.10;99.90;;;;;;5057330;28;20455;-82
2023/02/22 05:12:52;;;;;;;27.77;13.80;;;7.10;99.90;;;;;;5054107;28;20488;-84
2023/02/22 05:15:24;;;;;;;23.67;14.93;;;7.10;99.90;;;;;;5071023;28;20470;-82
2023/02/22 05:17:51;;;;;;;70.50;16.83;;;7.10;99.90;;;;;;5050427;28;20450;-83
2023/02/22 05:20:22;;;;;;;21.60;11.73;;;7.00;99.90;;;;;;5032256;28;20457;-83
2023/02/22 05:22:50;;;;;;;19.30;12.40;;;6.90;99.90;;;;;;5042517;28;20480;-84
2023/02/22 05:25:19;;;;;;;20.80;12.10;;;6.90;99.90;;;;;;5052879;28;20485;-84
2023/02/22 05:27:50;;;;;;;19.30;12.40;;;7.00;99.90;;;;;;5050916;28;20521;-82
2023/02/22 05:30:17;;;;;;;19.23;12.67;;;7.00;99.90;;;;;;5050567;28;20499;-83
2023/02/22 05:32:45;;;;;;;17.57;10.70;;;6.90;99.90;;;;;;5046936;28;20532;-84
2023/02/22 05:35:12;;;;;;;25.70;13.40;;;6.80;99.90;;;;;;5029792;28;20817;-83
2023/02/22 05:37:39;;;;;;;18.50;13.20;;;6.80;99.90;;;;;;5022480;28;20483;-83
2023/02/22 05:40:07;;;;;;;14.37;11.33;;;6.90;99.90;;;;;;5021557;28;20449;-83
2023/02/22 05:42:34;;;;;;;17.00;12.20;;;6.90;99.90;;;;;;5031485;28;20572;-83
2023/02/22 05:45:01;;;;;;;19.80;11.80;;;6.90;99.90;;;;;;5056939;28;20462;-84
2023/02/22 05:47:28;;;;;;;18.43;12.07;;;6.90;99.90;;;;;;5063545;28;20455;-82
2023/02/22 05:49:56;;;;;;;18.63;12.23;;;7.00;99.90;;;;;;5061918;28;20454;-84
2023/02/22 05:52:23;;;;;;;18.63;10.63;;;7.00;99.90;;;;;;5063049;28;20507;-83
2023/02/22 05:54:49;;;;;;;61.43;16.07;;;7.00;99.90;;;;;;5064876;28;20467;-83
2023/02/22 05:57:17;;;;;;;15.77;11.07;;;6.80;99.90;;;;;;5065328;28;20448;-84
2023/02/22 05:59:44;;;;;;;16.13;11.40;;;6.90;99.90;;;;;;5065923;28;20529;-83
2023/02/22 06:02:12;;;;;;;16.33;11.10;;;6.90;99.90;;;;;;5064775;28;20950;-84
2023/02/22 06:04:39;;;;;;;18.33;11.10;;;6.80;99.90;;;;;;5064012;28;20449;-83
2023/02/22 06:07:07;;;;;;;18.90;12.27;;;6.80;99.90;;;;;;5062177;28;20462;-84
2023/02/22 06:09:34;;;;;;;19.00;12.20;;;6.80;99.90;;;;;;5062271;28;20511;-83
2023/02/22 06:12:02;;;;;;;18.17;11.77;;;6.80;99.90;;;;;;5069380;28;20454;-84
2023/02/22 06:14:29;;;;;;;18.00;11.23;;;6.80;99.90;;;;;;5067970;28;20495;-84
2023/02/22 06:16:58;;;;;;;42.40;15.47;;;6.80;99.90;;;;;;5058085;28;20447;-82
2023/02/22 06:19:25;;;;;;;47.20;13.53;;;6.70;99.90;;;;;;5055391;28;20577;-81
2023/02/22 06:21:52;;;;;;;42.17;12.40;;;6.60;99.90;;;;;;5020463;28;20491;-82
2023/02/22 06:24:21;;;;;;;45.57;14.47;;;6.60;99.90;;;;;;5019986;28;21107;-82
2023/02/22 06:26:55;;;;;;;21.27;10.87;;;6.60;99.90;;;;;;5020713;28;20460;-82
2023/02/22 06:29:22;;;;;;;15.67;10.67;;;6.60;99.90;;;;;;5052569;28;20447;-81
2023/02/22 06:31:49;;;;;;;16.83;11.63;;;6.60;99.90;;;;;;5042912;28;20451;-83
2023/02/22 06:34:16;;;;;;;20.93;10.10;;;6.70;99.90;;;;;;5057488;28;20482;-80
2023/02/22 06:36:43;;;;;;;45.60;14.33;;;6.70;99.90;;;;;;5043427;28;20562;-84
2023/02/22 06:39:11;;;;;;;38.27;14.23;;;6.60;99.90;;;;;;5026282;28;20449;-83
2023/02/22 06:41:39;;;;;;;26.07;12.20;;;6.40;99.90;;;;;;5019334;28;20551;-83
2023/02/22 06:44:06;;;;;;;26.73;12.43;;;6.40;99.90;;;;;;5018777;28;20858;-82
2023/02/22 06:46:33;;;;;;;15.37;11.07;;;6.40;99.90;;;;;;5049010;28;20480;-83
2023/02/22 06:49:00;;;;;;;20.40;11.27;;;6.50;99.90;;;;;;5050136;28;20543;-83
2023/02/22 06:51:28;;;;;;;15.60;10.60;;;6.50;99.90;;;;;;5041107;28;20454;-83
2023/02/22 06:53:55;;;;;;;15.70;10.80;;;6.50;99.90;;;;;;5060945;28;20840;-82
2023/02/22 06:56:22;;;;;;;14.50;10.13;;;6.50;99.90;;;;;;5060390;28;20486;-82
2023/02/22 06:58:50;;;;;;;24.50;12.07;;;6.40;99.90;;;;;;5060897;28;21042;-84
2023/02/22 07:01:17;;;;;;;18.93;11.70;;;6.30;99.90;;;;;;5055855;28;20623;-83
2023/02/22 07:03:44;;;;;;;16.70;10.73;;;6.30;99.90;;;;;;5049118;28;20495;-83
2023/02/22 07:06:11;;;;;;;14.97;9.30;;;6.30;99.90;;;;;;5049960;28;20519;-85
2023/02/22 07:08:38;;;;;;;14.07;10.17;;;6.40;99.90;;;;;;5064330;28;20444;-85
2023/02/22 07:11:05;;;;;;;13.73;8.10;;;6.30;99.90;;;;;;5062943;28;20447;-84
2023/02/22 07:13:32;;;;;;;16.23;10.00;;;6.40;99.90;;;;;;5031160;28;20472;-83
2023/02/22 07:16:00;;;;;;;14.23;9.40;;;6.30;99.90;;;;;;5060136;28;20458;-84
2023/02/22 07:18:27;;;;;;;11.87;8.20;;;6.20;99.90;;;;;;5065950;28;20526;-84
2023/02/22 07:20:54;;;;;;;13.57;9.37;;;6.20;99.90;;;;;;5066422;28;20538;-85
2023/02/22 07:23:22;;;;;;;12.10;8.00;;;6.20;99.90;;;;;;5052338;28;20558;-83
2023/02/22 07:25:49;;;;;;;11.93;7.50;;;6.20;99.90;;;;;;5046383;28;20487;-85
2023/02/22 07:28:32;;;;;;;11.40;9.40;;;6.20;99.90;;;;;;5048686;28;20529;-84
2023/02/22 07:31:03;;;;;;;16.27;10.97;;;6.30;99.90;;;;;;5036438;28;20566;-84
2023/02/22 07:33:30;;;;;;;10.83;8.87;;;6.30;99.90;;;;;;5041657;28;20483;-84
2023/02/22 07:35:57;;;;;;;15.27;10.17;;;6.30;99.90;;;;;;5044768;28;20544;-83
2023/02/22 07:38:24;;;;;;;15.03;9.17;;;6.30;99.90;;;;;;5042729;28;20480;-83
2023/02/22 07:40:51;;;;;;;13.37;8.80;;;6.30;99.90;;;;;;5043742;28;20456;-83
2023/02/22 07:43:19;;;;;;;13.23;9.07;;;6.30;99.90;;;;;;5047451;28;20564;-83
2023/02/22 07:45:47;;;;;;;13.30;8.23;;;6.30;99.90;;;;;;5061676;28;20461;-84
2023/02/22 07:48:17;;;;;;;15.27;9.23;;;6.30;99.90;;;;;;5060482;28;20472;-83
2023/02/22 07:50:44;;;;;;;13.93;8.97;;;6.40;99.90;;;;;;5050348;28;20539;-83
2023/02/22 07:53:17;;;;;;;13.33;8.67;;;6.40;99.90;;;;;;5043445;28;20508;-82
2023/02/22 07:55:44;;;;;;;11.27;8.13;;;6.60;99.90;;;;;;5042833;28;20460;-82
2023/02/22 07:58:15;;;;;;;13.50;9.40;;;6.70;99.90;;;;;;5044415;28;20455;-84
2023/02/22 08:00:43;;;;;;;11.43;8.30;;;6.80;99.90;;;;;;5053486;28;20523;-83
2023/02/22 08:03:11;;;;;;;13.70;8.50;;;6.90;99.90;;;;;;5052210;28;21215;-83
2023/02/22 08:05:41;;;;;;;13.57;8.63;;;6.90;99.90;;;;;;5037711;28;20633;-83
2023/02/22 08:08:08;;;;;;;10.73;7.80;;;7.00;99.90;;;;;;5036186;28;20473;-84
2023/02/22 08:10:36;;;;;;;12.40;8.43;;;7.20;99.90;;;;;;5049286;28;20511;-84
2023/02/22 08:13:03;;;;;;;10.63;7.37;;;7.40;99.90;;;;;;5050174;28;20480;-83
2023/02/22 08:15:31;;;;;;;11.40;7.80;;;7.50;99.90;;;;;;5042178;28;20468;-83
2023/02/22 08:18:00;;;;;;;9.60;7.63;;;7.60;99.90;;;;;;5046037;28;20481;-83
2023/02/22 08:20:27;;;;;;;13.13;7.50;;;7.70;99.90;;;;;;5048944;28;20453;-83
2023/02/22 08:22:56;;;;;;;11.87;8.53;;;7.80;99.90;;;;;;5055794;28;20535;-83
2023/02/22 08:25:26;;;;;;;12.40;8.90;;;8.00;99.90;;;;;;5053786;28;20546;-83
2023/02/22 08:27:59;;;;;;;11.63;7.97;;;8.00;99.90;;;;;;5052740;28;20453;-83
2023/02/22 08:30:28;;;;;;;16.63;8.93;;;8.10;99.90;;;;;;5036569;28;20453;-83
2023/02/22 08:32:54;;;;;;;12.07;8.20;;;8.40;99.90;;;;;;5041681;28;20505;-84
2023/02/22 08:35:22;;;;;;;11.70;8.50;;;8.50;99.90;;;;;;5049177;28;20453;-84
2023/02/22 08:37:51;;;;;;;15.53;9.53;;;8.70;99.90;;;;;;5040588;28;20488;-82
2023/02/22 08:40:22;;;;;;;13.93;10.10;;;8.90;99.90;;;;;;5061416;28;21031;-83
2023/02/22 08:42:49;;;;;;;14.50;9.40;;;9.00;96.00;;;;;;5052793;28;20579;-83
2023/02/22 08:45:17;;;;;;;13.40;9.17;;;9.10;70.60;;;;;;5044679;28;20458;-84
2023/02/22 08:47:43;;;;;;;16.17;9.97;;;9.30;87.90;;;;;;5054058;28;20544;-83
2023/02/22 08:50:18;;;;;;;13.10;9.33;;;9.40;48.20;;;;;;5048822;28;20489;-84
2023/02/22 08:52:49;;;;;;;17.47;10.87;;;9.50;45.60;;;;;;5030236;28;20477;-84
2023/02/22 08:55:23;;;;;;;14.50;9.53;;;9.80;36.50;;;;;;5032659;28;20454;-83
2023/02/22 08:57:50;;;;;;;12.33;9.30;;;10.10;22.20;;;;;;5038629;28;20464;-84
2023/02/22 09:00:18;;;;;;;14.83;10.37;;;10.30;1.00;;;;;;5037198;28;20463;-85
2023/02/22 09:02:45;;;;;;;14.93;10.70;;;10.50;1.00;;;;;;5026954;28;20488;-88
2023/02/22 09:05:12;;;;;;;15.70;8.90;;;10.70;1.00;;;;;;5034308;28;20554;-84
2023/02/22 09:07:41;;;;;;;13.37;9.40;;;10.90;1.00;;;;;;5036902;28;20539;-84
2023/02/22 09:10:09;;;;;;;13.97;9.20;;;11.00;1.00;;;;;;5027588;28;20862;-84
2023/02/22 09:12:37;;;;;;;13.33;9.57;;;11.40;1.00;;;;;;5035866;28;20616;-85
2023/02/22 09:15:04;;;;;;;13.50;9.63;;;11.60;1.00;;;;;;5035872;28;20469;-82
2023/02/22 09:17:31;;;;;;;15.70;8.60;;;12.00;1.00;;;;;;5041225;28;20478;-85
2023/02/22 09:19:58;;;;;;;12.17;8.40;;;12.30;1.00;;;;;;5069980;22;20507;-83
2023/02/22 09:22:25;;;;;;;11.87;8.03;;;12.70;99.90;;;;;;5035098;28;20531;-84
2023/02/22 09:24:53;;;;;;;10.80;8.60;;;13.10;99.90;;;;;;5033309;28;20553;-85
2023/02/22 09:27:22;;;;;;;13.53;8.80;;;13.40;99.90;;;;;;5035516;28;20469;-85
2023/02/22 09:29:56;;;;;;;10.53;8.60;;;13.60;1.00;;;;;;5033973;28;20565;-85
2023/02/22 09:32:26;;;;;;;12.07;8.70;;;13.90;99.90;;;;;;5037305;28;20475;-86
2023/02/22 09:34:53;;;;;;;10.10;8.40;;;14.00;1.00;;;;;;5038967;28;20501;-85
2023/02/22 09:37:20;;;;;;;11.43;9.30;;;14.30;1.00;;;;;;5040761;28;20449;-86
2023/02/22 09:39:47;;;;;;;11.53;8.87;;;14.70;1.00;;;;;;5041386;28;20543;-86
2023/02/22 09:42:20;;;;;;;11.65;8.40;;;15.20;99.90;;;;;;5041704;28;20530;-87
2023/02/22 09:44:52;;;;;;;13.13;8.60;;;15.40;99.90;;;;;;5042906;28;21052;-87
2023/02/22 09:47:31;;;;;;;13.40;9.83;;;15.60;99.90;;;;;;5041891;28;20445;-86
2023/02/22 09:50:02;;;;;;;13.37;8.40;;;15.80;1.00;;;;;;5042870;28;20566;-86
2023/02/22 09:52:32;;;;;;;13.40;9.40;;;16.00;99.90;;;;;;5044481;28;20439;-87
2023/02/22 09:55:07;;;;;;;12.20;9.83;;;16.20;30.50;;;;;;5042874;28;20467;-86
2023/02/22 09:57:39;;;;;;;13.17;8.63;;;16.30;65.70;;;;;;5045209;28;20494;-86
2023/02/22 10:00:17;;;;;;;11.57;8.60;;;16.70;1.00;;;;;;5027380;28;20473;-86
2023/02/22 10:02:49;;;;;;;13.03;7.60;;;17.10;1.00;;;;;;5046072;28;21034;-86
2023/02/22 10:05:26;;;;;;;11.50;8.90;;;17.80;99.90;;;;;;5060690;28;20456;-86
2023/02/22 10:07:58;;;;;;;13.53;10.90;;;18.30;71.30;;;;;;5074540;28;20452;-85
2023/02/22 10:10:28;;;;;;;12.77;8.33;;;18.60;1.00;;;;;;5058912;28;20507;-85
2023/02/22 10:13:04;;;;;;;10.70;8.30;;;19.20;1.00;;;;;;5060039;28;20466;-85
2023/02/22 10:15:46;;;;;;;11.63;9.20;;;19.50;1.00;;;;;;5060019;28;20437;-85
2023/02/22 10:18:45;;;;;;;9.80;7.80;;;19.40;1.00;;;;;;5043740;28;20457;-86
2023/02/22 10:21:23;;;;;;;12.80;9.30;;;19.10;1.00;;;;;;5041765;28;20542;-87
2023/02/22 10:23:56;;;;;;;13.70;9.87;;;18.00;1.00;;;;;;5062417;28;21042;-86
2023/02/22 10:26:29;;;;;;;11.37;8.90;;;17.90;1.00;;;;;;5065821;28;20550;-86
2023/02/22 10:29:00;;;;;;;10.20;8.27;;;17.90;1.00;;;;;;5026363;28;20464;-84
2023/02/22 10:31:32;;;;;;;11.23;8.60;;;17.90;1.00;;;;;;5047901;28;20560;-85
2023/02/22 10:34:03;;;;;;;11.73;8.10;;;17.90;1.00;;;;;;5071526;28;20464;-85
2023/02/22 10:36:29;;;;;;;14.90;10.00;;;18.10;1.00;;;;;;5059573;28;20480;-86
2023/02/22 10:38:59;;;;;;;11.60;9.17;;;18.20;1.00;;;;;;5051099;28;20459;-86
2023/02/22 10:41:30;;;;;;;11.60;8.93;;;18.20;1.00;;;;;;5045594;28;20452;-86
2023/02/22 10:43:57;;;;;;;11.57;9.30;;;18.50;1.00;;;;;;5044531;28;20514;-85
2023/02/22 10:46:29;;;;;;;12.00;8.80;;;18.40;1.00;;;;;;5043398;28;21034;-85
2023/02/22 10:49:02;;;;;;;10.53;8.43;;;18.70;1.00;;;;;;5043276;28;20436;-85
2023/02/22 10:51:29;;;;;;;14.20;9.83;;;19.50;1.00;;;;;;5043752;28;20858;-85
2023/02/22 10:54:03;;;;;;;14.03;10.17;;;19.30;1.00;;;;;;5044030;28;20447;-85
2023/02/22 10:56:30;;;;;;;10.73;8.67;;;20.20;1.00;;;;;;5040673;28;20440;-85
2023/02/22 10:59:01;;;;;;;10.33;8.20;;;20.50;1.00;;;;;;5041322;28;20465;-85
2023/02/22 11:01:36;;;;;;;10.53;7.70;;;21.10;1.00;;;;;;5041226;28;20875;-86
2023/02/22 11:04:10;;;;;;;13.30;9.43;;;21.90;1.00;;;;;;5040612;28;20499;-86
2023/02/22 11:06:38;;;;;;;10.80;8.67;;;21.80;1.00;;;;;;5040678;28;20456;-85
2023/02/22 11:09:12;;;;;;;14.33;10.07;;;22.10;1.00;;;;;;5041406;28;20492;-85
2023/02/22 11:11:41;;;;;;;10.87;8.80;;;22.70;1.00;;;;;;5040655;28;20901;-86
2023/02/22 11:14:10;;;;;;;11.73;9.30;;;23.50;1.00;;;;;;5057231;28;20539;-85
2023/02/22 11:16:42;;;;;;;16.53;9.73;;;23.90;1.00;;;;;;5040696;28;20502;-85
2023/02/22 11:19:19;;;;;;;10.13;8.70;;;24.10;1.00;;;;;;5041277;28;20475;-85
2023/02/22 11:21:46;;;;;;;10.43;7.93;;;24.70;1.00;;;;;;5039372;28;20441;-86
2023/02/22 11:24:15;;;;;;;15.50;9.63;;;24.90;1.00;;;;;;5041046;28;20484;-86
2023/02/22 11:26:45;;;;;;;11.57;9.43;;;24.30;1.00;;;;;;5041539;28;20890;-86
2023/02/22 11:29:20;;;;;;;10.57;8.40;;;24.10;1.00;;;;;;5042208;28;20559;-86
2023/02/22 11:31:49;;;;;;;10.50;8.80;;;24.20;1.00;;;;;;5042623;28;20451;-86
2023/02/22 11:34:32;;;;;;;10.50;8.20;;;24.80;1.00;;;;;;5042012;28;20493;-86
2023/02/22 11:37:29;;;;;;;10.43;8.80;;;25.80;1.00;;;;;;5038563;28;20462;-86
2023/02/22 11:40:06;;;;;;;13.30;8.80;;;26.70;1.00;;;;;;5037657;28;20475;-86
2023/02/22 11:42:33;;;;;;;11.40;7.53;;;26.70;1.00;;;;;;5044472;28;20451;-86
2023/02/22 11:45:09;;;;;;;9.10;5.90;;;27.60;1.00;;;;;;5058828;28;20837;-87
2023/02/22 11:47:51;;;;;;;8.27;5.53;;;27.20;1.00;;;;;;5042099;28;20510;-86
2023/02/22 11:50:27;;;;;;;5.47;4.47;;;27.20;1.00;;;;;;5039760;28;20877;-86
2023/02/22 11:53:20;;;;;;;6.50;5.23;;;26.70;1.00;;;;;;5041624;28;20464;-86
2023/02/22 11:55:55;;;;;;;8.03;5.10;;;26.10;1.00;;;;;;5039499;28;20889;-86
2023/02/22 11:58:32;;;;;;;7.23;4.90;;;26.20;1.00;;;;;;5036353;28;21059;-85
2023/02/22 12:01:10;;;;;;;7.57;5.10;;;25.80;1.00;;;;;;5033929;28;20491;-85
2023/02/22 12:04:19;;;;;;;5.00;4.07;;;24.60;1.00;;;;;;5034163;28;20484;-84
2023/02/22 12:06:53;;;;;;;4.63;3.43;;;25.30;1.00;;;;;;5024110;28;20503;-86
2023/02/22 12:09:28;;;;;;;5.37;3.93;;;26.30;1.00;;;;;;5037617;28;20547;-85
2023/02/22 12:12:04;;;;;;;6.73;4.53;;;27.30;1.00;;;;;;5057688;28;20459;-84
2023/02/22 12:14:40;;;;;;;6.70;4.63;;;27.40;1.00;;;;;;5024726;28;20489;-85
2023/02/22 12:17:23;;;;;;;5.50;4.67;;;27.20;1.00;;;;;;5023948;28;20457;-85
2023/02/22 12:19:54;;;;;;;7.40;4.50;;;26.80;1.00;;;;;;5036753;28;20854;-85
2023/02/22 12:22:25;;;;;;;8.50;4.40;;;26.80;1.00;;;;;;5034747;28;20544;-85
2023/02/22 12:24:58;;;;;;;5.47;4.47;;;27.40;1.00;;;;;;5034357;28;20967;-86
2023/02/22 12:27:30;;;;;;;6.80;4.43;;;26.90;1.00;;;;;;5034212;28;20479;-85
2023/02/22 12:30:04;;;;;;;6.70;4.40;;;27.10;1.00;;;;;;5039091;28;20560;-86
2023/02/22 12:32:40;;;;;;;8.73;4.10;;;28.10;1.00;;;;;;5035674;28;20862;-85
2023/02/22 12:35:16;;;;;;;6.20;4.70;;;28.50;1.00;;;;;;5037337;28;20490;-86
2023/02/22 12:37:53;;;;;;;6.90;4.60;;;28.20;1.00;;;;;;5045441;28;20513;-86
2023/02/22 12:40:26;;;;;;;6.60;4.73;;;28.50;1.00;;;;;;5050265;28;20550;-87
2023/02/22 12:42:59;;;;;;;6.10;4.77;;;28.10;1.00;;;;;;5054407;28;20486;-87
2023/02/22 12:45:34;;;;;;;7.80;4.80;;;27.20;1.00;;;;;;5033414;28;20999;-87
2023/02/22 12:48:20;;;;;;;8.87;4.60;;;25.50;1.00;;;;;;5032303;28;20453;-87
2023/02/22 12:50:53;;;;;;;5.60;4.20;;;26.90;1.00;;;;;;5040782;28;20476;-85
2023/02/22 12:53:25;;;;;;;6.60;4.30;;;27.00;1.00;;;;;;5047796;28;20473;-85
2023/02/22 12:55:58;;;;;;;5.90;4.60;;;27.60;1.00;;;;;;5047027;28;20484;-85
2023/02/22 12:58:30;;;;;;;6.80;4.87;;;28.10;1.00;;;;;;5048050;28;20932;-86